sensor_id;sensor_type;location;lat;lon;timestamp;temperature;humidity
80958;DHT22;70419;42.700;23.316;2023-09-30T00:01:00;18.30;47.20
80958;DHT22;70419;42.700;23.316;2023-09-30T00:03:26;18.40;47.10
80958;DHT22;70419;42.700;23.316;2023-09-30T00:05:51;18.50;47.00
80958;DHT22;70419;42.700;23.316;2023-09-30T00:08:17;18.50;46.80
80958;DHT22;70419;42.700;23.316;2023-09-30T00:10:43;18.50;46.70
80958;DHT22;70419;42.700;23.316;2023-09-30T00:13:08;18.50;46.60
80958;DHT22;70419;42.700;23.316;2023-09-30T00:15:34;18.60;46.40
80958;DHT22;70419;42.700;23.316;2023-09-30T00:18:00;18.70;46.20
80958;DHT22;70419;42.700;23.316;2023-09-30T00:20:27;18.70;46.00
80958;DHT22;70419;42.700;23.316;2023-09-30T00:22:53;18.80;45.90
80958;DHT22;70419;42.700;23.316;2023-09-30T00:25:19;18.90;45.00
80958;DHT22;70419;42.700;23.316;2023-09-30T00:27:48;18.80;46.20
80958;DHT22;70419;42.700;23.316;2023-09-30T00:30:14;18.70;46.30
80958;DHT22;70419;42.700;23.316;2023-09-30T00:32:40;18.70;46.20
80958;DHT22;70419;42.700;23.316;2023-09-30T00:35:07;18.80;45.90
80958;DHT22;70419;42.700;23.316;2023-09-30T00:37:40;18.80;45.70
80958;DHT22;70419;42.700;23.316;2023-09-30T00:40:07;18.90;45.40
80958;DHT22;70419;42.700;23.316;2023-09-30T00:42:38;18.70;45.30
80958;DHT22;70419;42.700;23.316;2023-09-30T00:45:04;18.70;45.20
80958;DHT22;70419;42.700;23.316;2023-09-30T00:47:31;18.80;45.00
80958;DHT22;70419;42.700;23.316;2023-09-30T00:49:57;18.70;45.00
80958;DHT22;70419;42.700;23.316;2023-09-30T00:52:23;18.80;44.80
80958;DHT22;70419;42.700;23.316;2023-09-30T00:54:50;18.90;44.90
80958;DHT22;70419;42.700;23.316;2023-09-30T00:57:20;18.90;45.00
80958;DHT22;70419;42.700;23.316;2023-09-30T00:59:47;19.10;45.20
80958;DHT22;70419;42.700;23.316;2023-09-30T01:02:13;19.00;44.90
80958;DHT22;70419;42.700;23.316;2023-09-30T01:04:40;19.00;44.10
80958;DHT22;70419;42.700;23.316;2023-09-30T01:07:06;18.90;44.90
80958;DHT22;70419;42.700;23.316;2023-09-30T01:09:32;18.90;45.10
80958;DHT22;70419;42.700;23.316;2023-09-30T01:11:59;18.90;44.40
80958;DHT22;70419;42.700;23.316;2023-09-30T01:14:29;18.90;45.30
80958;DHT22;70419;42.700;23.316;2023-09-30T01:16:56;18.90;44.80
80958;DHT22;70419;42.700;23.316;2023-09-30T01:19:22;18.90;45.20
80958;DHT22;70419;42.700;23.316;2023-09-30T01:21:57;18.80;45.20
80958;DHT22;70419;42.700;23.316;2023-09-30T01:24:29;18.80;45.50
80958;DHT22;70419;42.700;23.316;2023-09-30T01:26:56;18.80;45.50
80958;DHT22;70419;42.700;23.316;2023-09-30T01:29:22;18.80;45.30
80958;DHT22;70419;42.700;23.316;2023-09-30T01:31:48;18.70;45.10
80958;DHT22;70419;42.700;23.316;2023-09-30T01:34:15;18.70;45.20
80958;DHT22;70419;42.700;23.316;2023-09-30T01:36:44;18.70;45.20
80958;DHT22;70419;42.700;23.316;2023-09-30T01:39:11;18.80;45.40
80958;DHT22;70419;42.700;23.316;2023-09-30T01:41:38;18.90;45.60
80958;DHT22;70419;42.700;23.316;2023-09-30T01:44:06;18.90;45.90
80958;DHT22;70419;42.700;23.316;2023-09-30T01:46:33;19.00;45.80
80958;DHT22;70419;42.700;23.316;2023-09-30T01:48:59;19.00;45.80
80958;DHT22;70419;42.700;23.316;2023-09-30T01:51:24;19.00;45.90
80958;DHT22;70419;42.700;23.316;2023-09-30T01:53:50;19.00;45.80
80958;DHT22;70419;42.700;23.316;2023-09-30T01:56:16;19.00;45.80
80958;DHT22;70419;42.700;23.316;2023-09-30T01:58:42;19.00;46.00
80958;DHT22;70419;42.700;23.316;2023-09-30T02:01:09;19.00;46.10
80958;DHT22;70419;42.700;23.316;2023-09-30T02:03:35;19.00;46.10
80958;DHT22;70419;42.700;23.316;2023-09-30T02:06:00;18.90;46.30
80958;DHT22;70419;42.700;23.316;2023-09-30T02:08:26;18.90;46.50
80958;DHT22;70419;42.700;23.316;2023-09-30T02:10:52;18.90;46.50
80958;DHT22;70419;42.700;23.316;2023-09-30T02:13:18;18.80;46.50
80958;DHT22;70419;42.700;23.316;2023-09-30T02:15:44;18.70;46.60
80958;DHT22;70419;42.700;23.316;2023-09-30T02:18:10;18.50;46.90
80958;DHT22;70419;42.700;23.316;2023-09-30T02:20:36;18.40;47.10
80958;DHT22;70419;42.700;23.316;2023-09-30T02:23:06;18.30;47.20
80958;DHT22;70419;42.700;23.316;2023-09-30T02:25:32;18.20;47.40
80958;DHT22;70419;42.700;23.316;2023-09-30T02:27:59;18.20;47.40
80958;DHT22;70419;42.700;23.316;2023-09-30T02:30:26;18.00;47.50
80958;DHT22;70419;42.700;23.316;2023-09-30T02:32:53;17.90;47.10
80958;DHT22;70419;42.700;23.316;2023-09-30T02:35:18;17.80;47.00
80958;DHT22;70419;42.700;23.316;2023-09-30T02:37:46;17.70;47.10
80958;DHT22;70419;42.700;23.316;2023-09-30T02:40:11;17.50;47.20
80958;DHT22;70419;42.700;23.316;2023-09-30T02:42:41;17.40;47.70
80958;DHT22;70419;42.700;23.316;2023-09-30T02:45:07;17.40;48.10
80958;DHT22;70419;42.700;23.316;2023-09-30T02:47:37;17.40;48.30
80958;DHT22;70419;42.700;23.316;2023-09-30T02:50:04;17.20;48.50
80958;DHT22;70419;42.700;23.316;2023-09-30T02:52:31;17.00;48.90
80958;DHT22;70419;42.700;23.316;2023-09-30T02:54:58;16.90;49.00
80958;DHT22;70419;42.700;23.316;2023-09-30T02:57:24;16.90;48.90
80958;DHT22;70419;42.700;23.316;2023-09-30T02:59:51;16.80;49.00
80958;DHT22;70419;42.700;23.316;2023-09-30T03:02:20;16.70;49.30
80958;DHT22;70419;42.700;23.316;2023-09-30T03:04:49;16.70;49.60
80958;DHT22;70419;42.700;23.316;2023-09-30T03:07:20;16.60;49.80
80958;DHT22;70419;42.700;23.316;2023-09-30T03:09:46;16.60;50.10
80958;DHT22;70419;42.700;23.316;2023-09-30T03:12:12;16.60;50.30
80958;DHT22;70419;42.700;23.316;2023-09-30T03:14:39;16.60;50.50
80958;DHT22;70419;42.700;23.316;2023-09-30T03:17:05;16.50;50.60
80958;DHT22;70419;42.700;23.316;2023-09-30T03:19:37;16.60;50.90
80958;DHT22;70419;42.700;23.316;2023-09-30T03:22:03;16.60;50.90
80958;DHT22;70419;42.700;23.316;2023-09-30T03:24:31;16.60;50.60
80958;DHT22;70419;42.700;23.316;2023-09-30T03:26:57;16.60;51.30
80958;DHT22;70419;42.700;23.316;2023-09-30T03:29:23;16.70;51.10
80958;DHT22;70419;42.700;23.316;2023-09-30T03:31:49;16.70;51.20
80958;DHT22;70419;42.700;23.316;2023-09-30T03:34:15;16.70;51.60
80958;DHT22;70419;42.700;23.316;2023-09-30T03:36:42;16.60;51.70
80958;DHT22;70419;42.700;23.316;2023-09-30T03:39:08;16.70;51.70
80958;DHT22;70419;42.700;23.316;2023-09-30T03:41:34;16.60;51.80
80958;DHT22;70419;42.700;23.316;2023-09-30T03:44:03;16.60;51.80
80958;DHT22;70419;42.700;23.316;2023-09-30T03:46:29;16.60;51.70
80958;DHT22;70419;42.700;23.316;2023-09-30T03:48:56;16.60;52.20
80958;DHT22;70419;42.700;23.316;2023-09-30T03:51:21;16.60;52.20
80958;DHT22;70419;42.700;23.316;2023-09-30T03:53:51;16.60;51.80
80958;DHT22;70419;42.700;23.316;2023-09-30T03:56:17;16.50;52.40
80958;DHT22;70419;42.700;23.316;2023-09-30T03:58:44;16.50;52.20
80958;DHT22;70419;42.700;23.316;2023-09-30T04:01:14;16.40;52.30
80958;DHT22;70419;42.700;23.316;2023-09-30T04:03:40;16.50;52.50
80958;DHT22;70419;42.700;23.316;2023-09-30T04:06:06;16.30;52.50
80958;DHT22;70419;42.700;23.316;2023-09-30T04:08:33;16.20;52.00
80958;DHT22;70419;42.700;23.316;2023-09-30T04:11:04;16.30;52.20
80958;DHT22;70419;42.700;23.316;2023-09-30T04:13:30;16.30;52.00
80958;DHT22;70419;42.700;23.316;2023-09-30T04:15:56;16.20;51.90
80958;DHT22;70419;42.700;23.316;2023-09-30T04:18:25;16.10;51.70
80958;DHT22;70419;42.700;23.316;2023-09-30T04:20:54;16.10;51.70
80958;DHT22;70419;42.700;23.316;2023-09-30T04:23:19;16.20;51.40
80958;DHT22;70419;42.700;23.316;2023-09-30T04:25:46;16.00;51.30
80958;DHT22;70419;42.700;23.316;2023-09-30T04:28:15;16.10;51.70
80958;DHT22;70419;42.700;23.316;2023-09-30T04:30:41;16.10;51.70
80958;DHT22;70419;42.700;23.316;2023-09-30T04:33:08;15.90;51.50
80958;DHT22;70419;42.700;23.316;2023-09-30T04:35:35;15.90;51.60
80958;DHT22;70419;42.700;23.316;2023-09-30T04:38:02;15.80;51.90
80958;DHT22;70419;42.700;23.316;2023-09-30T04:43:52;15.70;52.30
80958;DHT22;70419;42.700;23.316;2023-09-30T04:49:36;15.70;52.30
80958;DHT22;70419;42.700;23.316;2023-09-30T04:52:03;15.80;52.20
80958;DHT22;70419;42.700;23.316;2023-09-30T04:54:30;15.80;52.30
80958;DHT22;70419;42.700;23.316;2023-09-30T04:56:56;15.70;52.50
80958;DHT22;70419;42.700;23.316;2023-09-30T04:59:22;15.80;52.20
80958;DHT22;70419;42.700;23.316;2023-09-30T05:01:51;15.80;51.80
80958;DHT22;70419;42.700;23.316;2023-09-30T05:04:17;15.90;51.50
80958;DHT22;70419;42.700;23.316;2023-09-30T05:06:43;15.90;51.30
80958;DHT22;70419;42.700;23.316;2023-09-30T05:09:09;15.90;51.20
80958;DHT22;70419;42.700;23.316;2023-09-30T05:11:35;15.90;51.10
80958;DHT22;70419;42.700;23.316;2023-09-30T05:14:01;16.00;51.00
80958;DHT22;70419;42.700;23.316;2023-09-30T05:16:27;16.10;51.20
80958;DHT22;70419;42.700;23.316;2023-09-30T05:18:53;16.10;51.10
80958;DHT22;70419;42.700;23.316;2023-09-30T05:21:19;16.30;50.80
80958;DHT22;70419;42.700;23.316;2023-09-30T05:23:46;16.30;50.30
80958;DHT22;70419;42.700;23.316;2023-09-30T05:26:13;16.50;50.10
80958;DHT22;70419;42.700;23.316;2023-09-30T05:28:39;16.50;49.90
80958;DHT22;70419;42.700;23.316;2023-09-30T05:31:05;16.70;49.50
80958;DHT22;70419;42.700;23.316;2023-09-30T05:33:31;16.80;49.20
80958;DHT22;70419;42.700;23.316;2023-09-30T05:35:57;17.00;48.90
80958;DHT22;70419;42.700;23.316;2023-09-30T05:38:24;17.10;48.60
80958;DHT22;70419;42.700;23.316;2023-09-30T05:40:50;17.20;48.30
80958;DHT22;70419;42.700;23.316;2023-09-30T05:43:16;17.30;48.30
80958;DHT22;70419;42.700;23.316;2023-09-30T05:45:42;17.40;47.80
80958;DHT22;70419;42.700;23.316;2023-09-30T05:48:15;17.60;47.40
80958;DHT22;70419;42.700;23.316;2023-09-30T05:50:42;17.70;47.10
80958;DHT22;70419;42.700;23.316;2023-09-30T05:53:09;17.80;46.80
80958;DHT22;70419;42.700;23.316;2023-09-30T05:55:36;17.90;46.50
80958;DHT22;70419;42.700;23.316;2023-09-30T05:58:02;18.00;46.10
80958;DHT22;70419;42.700;23.316;2023-09-30T06:00:28;18.20;45.80
80958;DHT22;70419;42.700;23.316;2023-09-30T06:02:57;18.40;45.60
80958;DHT22;70419;42.700;23.316;2023-09-30T06:05:23;18.70;44.90
80958;DHT22;70419;42.700;23.316;2023-09-30T06:07:49;19.50;43.20
80958;DHT22;70419;42.700;23.316;2023-09-30T06:10:15;20.50;40.80
80958;DHT22;70419;42.700;23.316;2023-09-30T06:12:41;21.70;38.00
80958;DHT22;70419;42.700;23.316;2023-09-30T06:15:12;22.70;35.90
80958;DHT22;70419;42.700;23.316;2023-09-30T06:17:39;23.80;34.50
80958;DHT22;70419;42.700;23.316;2023-09-30T06:20:06;24.70;31.90
80958;DHT22;70419;42.700;23.316;2023-09-30T06:22:35;25.60;30.00
80958;DHT22;70419;42.700;23.316;2023-09-30T06:25:01;26.30;29.10
80958;DHT22;70419;42.700;23.316;2023-09-30T06:27:29;27.20;28.20
80958;DHT22;70419;42.700;23.316;2023-09-30T06:29:55;27.80;27.10
80958;DHT22;70419;42.700;23.316;2023-09-30T06:32:20;28.50;26.60
80958;DHT22;70419;42.700;23.316;2023-09-30T06:34:47;29.00;25.90
80958;DHT22;70419;42.700;23.316;2023-09-30T06:37:12;29.60;25.20
80958;DHT22;70419;42.700;23.316;2023-09-30T06:39:41;30.10;24.50
80958;DHT22;70419;42.700;23.316;2023-09-30T06:42:06;30.70;23.30
80958;DHT22;70419;42.700;23.316;2023-09-30T06:44:32;31.20;23.30
80958;DHT22;70419;42.700;23.316;2023-09-30T06:46:59;31.70;22.80
80958;DHT22;70419;42.700;23.316;2023-09-30T06:49:24;32.30;21.70
80958;DHT22;70419;42.700;23.316;2023-09-30T06:51:50;32.90;21.60
80958;DHT22;70419;42.700;23.316;2023-09-30T06:54:16;33.40;21.20
80958;DHT22;70419;42.700;23.316;2023-09-30T06:56:43;33.90;20.60
80958;DHT22;70419;42.700;23.316;2023-09-30T06:59:09;34.50;20.20
80958;DHT22;70419;42.700;23.316;2023-09-30T07:01:35;35.00;19.80
80958;DHT22;70419;42.700;23.316;2023-09-30T07:04:02;35.50;19.20
80958;DHT22;70419;42.700;23.316;2023-09-30T07:06:30;35.60;18.80
80958;DHT22;70419;42.700;23.316;2023-09-30T07:08:56;36.10;18.70
80958;DHT22;70419;42.700;23.316;2023-09-30T07:11:31;36.50;18.20
80958;DHT22;70419;42.700;23.316;2023-09-30T07:14:00;36.90;17.90
80958;DHT22;70419;42.700;23.316;2023-09-30T07:16:26;37.40;17.50
80958;DHT22;70419;42.700;23.316;2023-09-30T07:18:52;38.00;17.10
80958;DHT22;70419;42.700;23.316;2023-09-30T07:21:18;38.60;16.70
80958;DHT22;70419;42.700;23.316;2023-09-30T07:23:44;39.10;16.30
80958;DHT22;70419;42.700;23.316;2023-09-30T07:26:09;39.70;15.80
80958;DHT22;70419;42.700;23.316;2023-09-30T07:28:35;40.10;15.60
80958;DHT22;70419;42.700;23.316;2023-09-30T07:31:04;40.40;14.60
80958;DHT22;70419;42.700;23.316;2023-09-30T07:33:30;41.00;15.00
80958;DHT22;70419;42.700;23.316;2023-09-30T07:35:56;41.30;14.60
80958;DHT22;70419;42.700;23.316;2023-09-30T07:38:27;41.70;14.60
80958;DHT22;70419;42.700;23.316;2023-09-30T07:40:54;41.70;14.40
80958;DHT22;70419;42.700;23.316;2023-09-30T07:43:20;42.10;14.00
80958;DHT22;70419;42.700;23.316;2023-09-30T07:45:46;42.50;13.60
80958;DHT22;70419;42.700;23.316;2023-09-30T07:48:11;42.70;13.60
80958;DHT22;70419;42.700;23.316;2023-09-30T07:50:38;43.20;12.70
80958;DHT22;70419;42.700;23.316;2023-09-30T07:53:04;43.50;13.10
80958;DHT22;70419;42.700;23.316;2023-09-30T07:55:30;43.90;12.80
80958;DHT22;70419;42.700;23.316;2023-09-30T07:57:56;44.10;12.50
80958;DHT22;70419;42.700;23.316;2023-09-30T08:00:27;44.20;12.50
80958;DHT22;70419;42.700;23.316;2023-09-30T08:02:55;43.90;12.60
80958;DHT22;70419;42.700;23.316;2023-09-30T08:05:21;44.40;12.40
80958;DHT22;70419;42.700;23.316;2023-09-30T08:07:46;44.60;12.10
80958;DHT22;70419;42.700;23.316;2023-09-30T08:10:12;45.00;11.90
80958;DHT22;70419;42.700;23.316;2023-09-30T08:12:52;45.50;11.80
80958;DHT22;70419;42.700;23.316;2023-09-30T08:15:20;45.70;11.60
80958;DHT22;70419;42.700;23.316;2023-09-30T08:17:46;46.20;11.50
80958;DHT22;70419;42.700;23.316;2023-09-30T08:20:12;46.70;11.10
80958;DHT22;70419;42.700;23.316;2023-09-30T08:22:39;47.30;10.60
80958;DHT22;70419;42.700;23.316;2023-09-30T08:25:07;47.80;10.60
80958;DHT22;70419;42.700;23.316;2023-09-30T08:27:33;47.90;10.40
80958;DHT22;70419;42.700;23.316;2023-09-30T08:29:59;48.10;10.50
80958;DHT22;70419;42.700;23.316;2023-09-30T08:32:25;48.40;10.00
80958;DHT22;70419;42.700;23.316;2023-09-30T08:34:51;48.50;10.00
80958;DHT22;70419;42.700;23.316;2023-09-30T08:37:17;48.50;10.00
80958;DHT22;70419;42.700;23.316;2023-09-30T08:39:44;49.00;10.00
80958;DHT22;70419;42.700;23.316;2023-09-30T08:42:10;49.40;9.70
80958;DHT22;70419;42.700;23.316;2023-09-30T08:44:40;50.00;9.40
80958;DHT22;70419;42.700;23.316;2023-09-30T08:47:07;50.50;9.20
80958;DHT22;70419;42.700;23.316;2023-09-30T08:49:39;51.00;8.60
80958;DHT22;70419;42.700;23.316;2023-09-30T08:52:06;51.40;8.70
80958;DHT22;70419;42.700;23.316;2023-09-30T08:54:32;51.90;7.90
80958;DHT22;70419;42.700;23.316;2023-09-30T08:56:58;52.00;8.00
80958;DHT22;70419;42.700;23.316;2023-09-30T08:59:25;52.40;7.80
80958;DHT22;70419;42.700;23.316;2023-09-30T09:01:52;52.70;7.40
80958;DHT22;70419;42.700;23.316;2023-09-30T09:04:18;52.70;7.40
80958;DHT22;70419;42.700;23.316;2023-09-30T09:06:44;52.50;7.50
80958;DHT22;70419;42.700;23.316;2023-09-30T09:09:18;51.80;7.90
80958;DHT22;70419;42.700;23.316;2023-09-30T09:11:46;52.40;7.70
80958;DHT22;70419;42.700;23.316;2023-09-30T09:14:12;53.10;7.50
80958;DHT22;70419;42.700;23.316;2023-09-30T09:16:51;53.90;7.30
80958;DHT22;70419;42.700;23.316;2023-09-30T09:19:19;54.60;7.10
80958;DHT22;70419;42.700;23.316;2023-09-30T09:22:00;54.80;6.80
80958;DHT22;70419;42.700;23.316;2023-09-30T09:27:07;55.10;6.70
80958;DHT22;70419;42.700;23.316;2023-09-30T09:29:33;55.60;6.60
80958;DHT22;70419;42.700;23.316;2023-09-30T09:32:16;55.20;6.50
80958;DHT22;70419;42.700;23.316;2023-09-30T09:34:43;54.40;6.80
80958;DHT22;70419;42.700;23.316;2023-09-30T09:39:55;51.00;7.90
80958;DHT22;70419;42.700;23.316;2023-09-30T09:42:28;51.80;7.80
80958;DHT22;70419;42.700;23.316;2023-09-30T09:45:04;53.10;7.30
80958;DHT22;70419;42.700;23.316;2023-09-30T09:47:32;54.20;7.00
80958;DHT22;70419;42.700;23.316;2023-09-30T09:49:59;54.80;6.70
80958;DHT22;70419;42.700;23.316;2023-09-30T09:52:25;55.30;6.50
80958;DHT22;70419;42.700;23.316;2023-09-30T09:54:54;55.50;6.40
80958;DHT22;70419;42.700;23.316;2023-09-30T09:57:20;56.00;6.40
80958;DHT22;70419;42.700;23.316;2023-09-30T09:59:47;56.40;6.10
80958;DHT22;70419;42.700;23.316;2023-09-30T10:02:14;56.30;6.30
80958;DHT22;70419;42.700;23.316;2023-09-30T10:04:44;54.90;6.40
80958;DHT22;70419;42.700;23.316;2023-09-30T10:07:24;55.20;6.50
80958;DHT22;70419;42.700;23.316;2023-09-30T10:09:52;55.60;6.30
80958;DHT22;70419;42.700;23.316;2023-09-30T10:12:20;55.70;5.70
80958;DHT22;70419;42.700;23.316;2023-09-30T10:14:51;55.00;6.10
80958;DHT22;70419;42.700;23.316;2023-09-30T10:17:17;54.40;6.40
80958;DHT22;70419;42.700;23.316;2023-09-30T10:20:04;53.30;6.70
80958;DHT22;70419;42.700;23.316;2023-09-30T10:22:32;52.60;6.90
80958;DHT22;70419;42.700;23.316;2023-09-30T10:24:59;53.00;6.90
80958;DHT22;70419;42.700;23.316;2023-09-30T10:30:07;53.10;6.50
80958;DHT22;70419;42.700;23.316;2023-09-30T10:35:41;54.40;6.30
80958;DHT22;70419;42.700;23.316;2023-09-30T10:40:51;56.00;5.60
80958;DHT22;70419;42.700;23.316;2023-09-30T10:46:00;56.90;5.60
80958;DHT22;70419;42.700;23.316;2023-09-30T10:48:34;57.20;5.30
80958;DHT22;70419;42.700;23.316;2023-09-30T10:51:17;57.60;5.10
80958;DHT22;70419;42.700;23.316;2023-09-30T10:53:51;57.70;5.30
80958;DHT22;70419;42.700;23.316;2023-09-30T10:56:18;57.50;5.10
80958;DHT22;70419;42.700;23.316;2023-09-30T10:58:54;57.30;5.20
80958;DHT22;70419;42.700;23.316;2023-09-30T11:01:22;56.50;5.30
80958;DHT22;70419;42.700;23.316;2023-09-30T11:03:55;56.50;5.40
80958;DHT22;70419;42.700;23.316;2023-09-30T11:06:23;56.10;5.30
80958;DHT22;70419;42.700;23.316;2023-09-30T11:08:54;56.30;5.40
80958;DHT22;70419;42.700;23.316;2023-09-30T11:11:33;56.40;5.40
80958;DHT22;70419;42.700;23.316;2023-09-30T11:13:59;56.50;5.50
80958;DHT22;70419;42.700;23.316;2023-09-30T11:16:26;57.00;5.30
80958;DHT22;70419;42.700;23.316;2023-09-30T11:18:55;57.20;5.00
80958;DHT22;70419;42.700;23.316;2023-09-30T11:21:22;57.60;5.10
80958;DHT22;70419;42.700;23.316;2023-09-30T11:23:48;58.00;5.00
80958;DHT22;70419;42.700;23.316;2023-09-30T11:26:14;58.00;5.00
80958;DHT22;70419;42.700;23.316;2023-09-30T11:28:42;58.30;5.00
80958;DHT22;70419;42.700;23.316;2023-09-30T11:31:13;58.60;5.00
80958;DHT22;70419;42.700;23.316;2023-09-30T11:33:54;58.90;4.80
80958;DHT22;70419;42.700;23.316;2023-09-30T11:36:23;58.70;4.70
80958;DHT22;70419;42.700;23.316;2023-09-30T11:38:50;58.50;4.80
80958;DHT22;70419;42.700;23.316;2023-09-30T11:41:21;57.90;4.90
80958;DHT22;70419;42.700;23.316;2023-09-30T11:44:07;57.70;5.10
80958;DHT22;70419;42.700;23.316;2023-09-30T11:49:34;57.40;5.20
80958;DHT22;70419;42.700;23.316;2023-09-30T11:52:10;57.10;5.30
80958;DHT22;70419;42.700;23.316;2023-09-30T11:54:41;56.90;5.40
80958;DHT22;70419;42.700;23.316;2023-09-30T11:57:12;56.50;5.40
80958;DHT22;70419;42.700;23.316;2023-09-30T11:59:41;55.80;5.30
80958;DHT22;70419;42.700;23.316;2023-09-30T12:02:12;55.30;5.50
80958;DHT22;70419;42.700;23.316;2023-09-30T12:04:38;54.90;5.70
80958;DHT22;70419;42.700;23.316;2023-09-30T12:07:04;54.80;5.80
80958;DHT22;70419;42.700;23.316;2023-09-30T12:09:37;55.20;5.80
80958;DHT22;70419;42.700;23.316;2023-09-30T12:12:06;55.50;5.70
80958;DHT22;70419;42.700;23.316;2023-09-30T12:14:36;56.10;5.60
80958;DHT22;70419;42.700;23.316;2023-09-30T12:17:02;55.40;5.50
80958;DHT22;70419;42.700;23.316;2023-09-30T12:19:28;52.80;6.20
80958;DHT22;70419;42.700;23.316;2023-09-30T12:21:55;52.40;6.50
80958;DHT22;70419;42.700;23.316;2023-09-30T12:24:22;52.80;6.40
80958;DHT22;70419;42.700;23.316;2023-09-30T12:26:50;53.10;6.30
80958;DHT22;70419;42.700;23.316;2023-09-30T12:29:17;53.10;6.40
80958;DHT22;70419;42.700;23.316;2023-09-30T12:31:50;53.70;6.10
80958;DHT22;70419;42.700;23.316;2023-09-30T12:34:18;53.30;6.10
80958;DHT22;70419;42.700;23.316;2023-09-30T12:36:44;52.90;6.20
80958;DHT22;70419;42.700;23.316;2023-09-30T12:39:10;53.00;6.10
80958;DHT22;70419;42.700;23.316;2023-09-30T12:41:43;52.20;6.50
80958;DHT22;70419;42.700;23.316;2023-09-30T12:44:11;51.90;6.70
80958;DHT22;70419;42.700;23.316;2023-09-30T12:46:41;52.50;6.50
80958;DHT22;70419;42.700;23.316;2023-09-30T12:49:07;53.00;6.30
80958;DHT22;70419;42.700;23.316;2023-09-30T12:51:34;53.20;6.30
80958;DHT22;70419;42.700;23.316;2023-09-30T12:54:00;53.30;6.10
80958;DHT22;70419;42.700;23.316;2023-09-30T12:56:26;53.30;6.10
80958;DHT22;70419;42.700;23.316;2023-09-30T12:58:55;53.60;6.10
80958;DHT22;70419;42.700;23.316;2023-09-30T13:01:23;53.60;6.20
80958;DHT22;70419;42.700;23.316;2023-09-30T13:03:49;53.40;6.20
80958;DHT22;70419;42.700;23.316;2023-09-30T13:06:15;52.90;6.20
80958;DHT22;70419;42.700;23.316;2023-09-30T13:08:42;52.40;6.30
80958;DHT22;70419;42.700;23.316;2023-09-30T13:11:09;52.20;6.50
80958;DHT22;70419;42.700;23.316;2023-09-30T13:13:35;52.40;6.40
80958;DHT22;70419;42.700;23.316;2023-09-30T13:16:02;52.90;6.50
80958;DHT22;70419;42.700;23.316;2023-09-30T13:18:31;53.10;6.40
80958;DHT22;70419;42.700;23.316;2023-09-30T13:20:58;52.90;6.50
80958;DHT22;70419;42.700;23.316;2023-09-30T13:23:23;52.90;6.50
80958;DHT22;70419;42.700;23.316;2023-09-30T13:25:50;52.40;6.40
80958;DHT22;70419;42.700;23.316;2023-09-30T13:28:15;51.90;6.70
80958;DHT22;70419;42.700;23.316;2023-09-30T13:30:42;51.80;6.70
80958;DHT22;70419;42.700;23.316;2023-09-30T13:33:08;51.70;6.80
80958;DHT22;70419;42.700;23.316;2023-09-30T13:35:33;51.50;6.90
80958;DHT22;70419;42.700;23.316;2023-09-30T13:38:02;51.20;7.00
80958;DHT22;70419;42.700;23.316;2023-09-30T13:40:29;50.80;7.10
80958;DHT22;70419;42.700;23.316;2023-09-30T13:42:54;50.50;7.30
80958;DHT22;70419;42.700;23.316;2023-09-30T13:45:21;50.30;7.20
80958;DHT22;70419;42.700;23.316;2023-09-30T13:47:47;50.00;7.30
80958;DHT22;70419;42.700;23.316;2023-09-30T13:50:13;49.60;7.40
80958;DHT22;70419;42.700;23.316;2023-09-30T13:52:38;49.60;7.40
80958;DHT22;70419;42.700;23.316;2023-09-30T13:55:06;49.40;7.50
80958;DHT22;70419;42.700;23.316;2023-09-30T13:57:33;49.40;7.60
80958;DHT22;70419;42.700;23.316;2023-09-30T13:59:59;49.10;7.50
80958;DHT22;70419;42.700;23.316;2023-09-30T14:02:25;48.70;7.80
80958;DHT22;70419;42.700;23.316;2023-09-30T14:04:54;48.20;8.00
80958;DHT22;70419;42.700;23.316;2023-09-30T14:07:20;47.60;8.30
80958;DHT22;70419;42.700;23.316;2023-09-30T14:09:46;47.20;8.40
80958;DHT22;70419;42.700;23.316;2023-09-30T14:12:13;47.00;8.60
80958;DHT22;70419;42.700;23.316;2023-09-30T14:14:39;46.50;8.50
80958;DHT22;70419;42.700;23.316;2023-09-30T14:17:04;46.30;8.70
80958;DHT22;70419;42.700;23.316;2023-09-30T14:19:37;46.30;8.80
80958;DHT22;70419;42.700;23.316;2023-09-30T14:22:04;46.30;8.90
80958;DHT22;70419;42.700;23.316;2023-09-30T14:24:31;45.80;8.90
80958;DHT22;70419;42.700;23.316;2023-09-30T14:26:59;45.40;9.10
80958;DHT22;70419;42.700;23.316;2023-09-30T14:29:24;45.00;9.30
80958;DHT22;70419;42.700;23.316;2023-09-30T14:31:50;44.90;9.40
80958;DHT22;70419;42.700;23.316;2023-09-30T14:34:17;44.70;9.50
80958;DHT22;70419;42.700;23.316;2023-09-30T14:36:43;44.00;9.70
80958;DHT22;70419;42.700;23.316;2023-09-30T14:39:10;43.50;10.10
80958;DHT22;70419;42.700;23.316;2023-09-30T14:41:36;42.60;10.50
80958;DHT22;70419;42.700;23.316;2023-09-30T14:44:01;41.10;11.00
80958;DHT22;70419;42.700;23.316;2023-09-30T14:46:36;39.50;11.80
80958;DHT22;70419;42.700;23.316;2023-09-30T14:49:04;38.10;12.50
80958;DHT22;70419;42.700;23.316;2023-09-30T14:51:32;36.70;13.10
80958;DHT22;70419;42.700;23.316;2023-09-30T14:53:57;35.50;13.90
80958;DHT22;70419;42.700;23.316;2023-09-30T14:56:23;34.60;14.50
80958;DHT22;70419;42.700;23.316;2023-09-30T14:58:50;33.80;15.20
80958;DHT22;70419;42.700;23.316;2023-09-30T15:01:15;33.20;15.50
80958;DHT22;70419;42.700;23.316;2023-09-30T15:03:41;32.50;16.00
80958;DHT22;70419;42.700;23.316;2023-09-30T15:06:09;31.90;16.50
80958;DHT22;70419;42.700;23.316;2023-09-30T15:08:35;31.30;16.90
80958;DHT22;70419;42.700;23.316;2023-09-30T15:11:02;30.90;17.10
80958;DHT22;70419;42.700;23.316;2023-09-30T15:13:28;30.50;17.70
80958;DHT22;70419;42.700;23.316;2023-09-30T15:15:55;30.10;18.20
80958;DHT22;70419;42.700;23.316;2023-09-30T15:18:22;29.60;18.50
80958;DHT22;70419;42.700;23.316;2023-09-30T15:20:50;29.20;19.00
80958;DHT22;70419;42.700;23.316;2023-09-30T15:23:15;29.00;19.30
80958;DHT22;70419;42.700;23.316;2023-09-30T15:25:42;28.70;19.40
80958;DHT22;70419;42.700;23.316;2023-09-30T15:28:09;28.40;20.50
80958;DHT22;70419;42.700;23.316;2023-09-30T15:30:35;28.20;20.10
80958;DHT22;70419;42.700;23.316;2023-09-30T15:33:01;28.00;20.10
80958;DHT22;70419;42.700;23.316;2023-09-30T15:35:28;27.90;20.50
80958;DHT22;70419;42.700;23.316;2023-09-30T15:37:54;27.60;20.60
80958;DHT22;70419;42.700;23.316;2023-09-30T15:40:20;27.40;20.80
80958;DHT22;70419;42.700;23.316;2023-09-30T15:42:48;27.30;21.10
80958;DHT22;70419;42.700;23.316;2023-09-30T15:45:14;27.20;21.40
80958;DHT22;70419;42.700;23.316;2023-09-30T15:47:39;26.90;21.50
80958;DHT22;70419;42.700;23.316;2023-09-30T15:50:06;26.70;21.90